CFG4806 EDDS-EDDB
Flight info
| Callsign | CFG4806 |
|---|---|
| Flight time | 0h 59m |
| Altitude | 32000 |
| Route | OKIBA4B/25 OKIBA N851 RIMKI Z99 LOHRE/N0445F390 N746 TIKNI T279 TAMEB T278 KLF KLF1R |
| Aircraft | A21N/M-SBDE3FGHIJ1J4J7LORVWXYZ/SB2D1G1 |
Departure
| Time | 2026-05-07 19:14 |
|---|---|
| Airport | Stuttgart Airport (EDDS) |
Arrival
| Time | 2026-05-07 20:14 |
|---|---|
| Airport | Berlin Brandenburg Airport (EDDB) |
| Time | Latitude | Longitude | Altitude | Speed | Heading |
|---|---|---|---|---|---|
| 2026-05-07 18:35 | 48.68790 | 9.19617 | 1291 ft | 0 kts | 164° |
| 2026-05-07 19:03 | 48.68784 | 9.19619 | 1291 ft | 3 kts | 164° |
| 2026-05-07 19:03 | 48.68755 | 9.19634 | 1291 ft | 6 kts | 153° |
| 2026-05-07 19:03 | 48.68734 | 9.19707 | 1291 ft | 10 kts | 83° |
| 2026-05-07 19:03 | 48.68749 | 9.19801 | 1291 ft | 5 kts | 73° |
| 2026-05-07 19:04 | 48.68762 | 9.19866 | 1291 ft | 8 kts | 66° |
| 2026-05-07 19:04 | 48.68804 | 9.19952 | 1291 ft | 12 kts | 50° |
| 2026-05-07 19:04 | 48.68846 | 9.20078 | 1291 ft | 15 kts | 75° |
| 2026-05-07 19:04 | 48.68875 | 9.20237 | 1291 ft | 14 kts | 74° |
| 2026-05-07 19:05 | 48.68906 | 9.20394 | 1291 ft | 17 kts | 74° |
| 2026-05-07 19:05 | 48.68940 | 9.20576 | 1291 ft | 19 kts | 74° |
| 2026-05-07 19:05 | 48.68975 | 9.20765 | 1291 ft | 19 kts | 74° |
| 2026-05-07 19:05 | 48.69009 | 9.20939 | 1291 ft | 12 kts | 74° |
| 2026-05-07 19:06 | 48.69035 | 9.21079 | 1291 ft | 15 kts | 74° |
| 2026-05-07 19:06 | 48.69106 | 9.21453 | 1291 ft | 21 kts | 74° |
| 2026-05-07 19:06 | 48.69149 | 9.21682 | 1291 ft | 24 kts | 74° |
| 2026-05-07 19:07 | 48.69196 | 9.21927 | 1291 ft | 23 kts | 73° |
| 2026-05-07 19:07 | 48.69244 | 9.22172 | 1291 ft | 26 kts | 73° |
| 2026-05-07 19:07 | 48.69292 | 9.22432 | 1291 ft | 27 kts | 74° |
| 2026-05-07 19:07 | 48.69339 | 9.22678 | 1291 ft | 23 kts | 73° |
| 2026-05-07 19:08 | 48.69383 | 9.22904 | 1291 ft | 14 kts | 73° |
| 2026-05-07 19:08 | 48.69413 | 9.23063 | 1291 ft | 17 kts | 74° |
| 2026-05-07 19:08 | 48.69448 | 9.23253 | 1291 ft | 20 kts | 74° |
| 2026-05-07 19:08 | 48.69490 | 9.23472 | 1291 ft | 22 kts | 73° |
| 2026-05-07 19:09 | 48.69511 | 9.23579 | 1291 ft | 16 kts | 73° |
| 2026-05-07 19:09 | 48.69546 | 9.23760 | 1291 ft | 19 kts | 74° |
| 2026-05-07 19:09 | 48.69582 | 9.23955 | 1291 ft | 13 kts | 73° |
| 2026-05-07 19:09 | 48.69609 | 9.24092 | 1291 ft | 12 kts | 76° |
| 2026-05-07 19:10 | 48.69590 | 9.24216 | 1291 ft | 7 kts | 116° |
| 2026-05-07 19:10 | 48.69557 | 9.24282 | 1291 ft | 6 kts | 152° |
| 2026-05-07 19:10 | 48.69543 | 9.24291 | 1291 ft | 0 kts | 156° |
| 2026-05-07 19:11 | 48.69542 | 9.24292 | 1291 ft | 0 kts | 156° |
| 2026-05-07 19:12 | 48.69532 | 9.24299 | 1291 ft | 5 kts | 158° |
| 2026-05-07 19:12 | 48.69470 | 9.24325 | 1291 ft | 12 kts | 171° |
| 2026-05-07 19:12 | 48.69388 | 9.24279 | 1291 ft | 15 kts | 239° |
| 2026-05-07 19:13 | 48.69368 | 9.24203 | 1291 ft | 1 kts | 254° |
| 2026-05-07 19:13 | 48.69367 | 9.24196 | 1291 ft | 1 kts | 254° |
| 2026-05-07 19:13 | 48.69364 | 9.24180 | 1291 ft | 0 kts | 254° |
| 2026-05-07 19:13 | 48.69363 | 9.24177 | 1291 ft | 2 kts | 254° |
| 2026-05-07 19:14 | 48.69343 | 9.24072 | 1291 ft | 39 kts | 254° |
| 2026-05-07 19:14 | 48.69173 | 9.23183 | 1291 ft | 131 kts | 253° |
| 2026-05-07 19:14 | 48.68882 | 9.21666 | 1668 ft | 157 kts | 255° |
| 2026-05-07 19:14 | 48.68595 | 9.20028 | 2476 ft | 165 kts | 254° |
| 2026-05-07 19:15 | 48.68259 | 9.18313 | 3234 ft | 175 kts | 253° |
| 2026-05-07 19:15 | 48.67894 | 9.16459 | 3937 ft | 192 kts | 253° |
| 2026-05-07 19:15 | 48.67490 | 9.14411 | 4575 ft | 216 kts | 253° |
| 2026-05-07 19:15 | 48.67029 | 9.12079 | 4874 ft | 244 kts | 253° |
| 2026-05-07 19:16 | 48.66798 | 9.09536 | 5029 ft | 246 kts | 278° |
| 2026-05-07 19:16 | 48.67440 | 9.07160 | 5043 ft | 247 kts | 306° |
| 2026-05-07 19:16 | 48.68708 | 9.05431 | 5032 ft | 253 kts | 331° |
| 2026-05-07 19:16 | 48.70467 | 9.04663 | 5048 ft | 269 kts | 359° |
| 2026-05-07 19:17 | 48.72326 | 9.04884 | 5941 ft | 271 kts | 2° |
| 2026-05-07 19:17 | 48.74179 | 9.04375 | 7207 ft | 274 kts | 344° |
| 2026-05-07 19:17 | 48.76066 | 9.04231 | 8429 ft | 279 kts | 12° |
| 2026-05-07 19:17 | 48.77926 | 9.05181 | 9617 ft | 285 kts | 21° |
| 2026-05-07 19:18 | 48.79805 | 9.06294 | 10588 ft | 300 kts | 21° |
| 2026-05-07 19:18 | 48.81829 | 9.07509 | 11214 ft | 324 kts | 21° |
| 2026-05-07 19:18 | 48.83996 | 9.08813 | 11857 ft | 345 kts | 21° |
| 2026-05-07 19:18 | 48.86262 | 9.10180 | 12743 ft | 354 kts | 21° |
| 2026-05-07 19:19 | 48.88572 | 9.11574 | 13455 ft | 360 kts | 21° |
| 2026-05-07 19:19 | 48.90910 | 9.12986 | 13812 ft | 362 kts | 21° |
| 2026-05-07 19:19 | 48.93257 | 9.14406 | 13959 ft | 363 kts | 21° |
| 2026-05-07 19:19 | 48.95602 | 9.15829 | 14548 ft | 364 kts | 21° |
| 2026-05-07 19:20 | 48.97945 | 9.17253 | 15514 ft | 369 kts | 21° |
| 2026-05-07 19:20 | 49.00344 | 9.18711 | 16508 ft | 374 kts | 21° |
| 2026-05-07 19:20 | 49.02781 | 9.20194 | 17457 ft | 379 kts | 21° |
| 2026-05-07 19:20 | 49.05249 | 9.21697 | 18375 ft | 384 kts | 21° |
| 2026-05-07 19:21 | 49.07755 | 9.23227 | 19254 ft | 389 kts | 21° |
| 2026-05-07 19:21 | 49.10290 | 9.24773 | 20101 ft | 395 kts | 21° |
| 2026-05-07 19:21 | 49.12857 | 9.26346 | 20918 ft | 400 kts | 21° |
| 2026-05-07 19:21 | 49.15459 | 9.27945 | 21730 ft | 405 kts | 21° |
| 2026-05-07 19:22 | 49.18090 | 9.29559 | 22504 ft | 409 kts | 21° |
| 2026-05-07 19:22 | 49.20776 | 9.30904 | 23220 ft | 414 kts | 13° |
| 2026-05-07 19:22 | 49.23643 | 9.31459 | 23928 ft | 418 kts | 1° |
| 2026-05-07 19:22 | 49.26567 | 9.31316 | 24622 ft | 422 kts | 356° |
| 2026-05-07 19:23 | 49.29515 | 9.31056 | 25274 ft | 427 kts | 356° |
| 2026-05-07 19:23 | 49.32500 | 9.30800 | 25914 ft | 431 kts | 356° |
| 2026-05-07 19:23 | 49.35514 | 9.30647 | 26524 ft | 436 kts | 1° |
| 2026-05-07 19:23 | 49.38560 | 9.31008 | 27122 ft | 440 kts | 5° |
| 2026-05-07 19:24 | 49.41616 | 9.31464 | 27698 ft | 444 kts | 5° |
| 2026-05-07 19:24 | 49.44706 | 9.31931 | 28263 ft | 448 kts | 5° |
| 2026-05-07 19:24 | 49.47802 | 9.32398 | 28978 ft | 447 kts | 5° |
| 2026-05-07 19:24 | 49.50899 | 9.32855 | 29681 ft | 446 kts | 5° |
| 2026-05-07 19:25 | 49.53950 | 9.33302 | 30350 ft | 444 kts | 5° |
| 2026-05-07 19:25 | 49.57035 | 9.33757 | 30984 ft | 444 kts | 5° |
| 2026-05-07 19:25 | 49.60100 | 9.34212 | 31589 ft | 444 kts | 5° |
| 2026-05-07 19:25 | 49.63178 | 9.34672 | 31913 ft | 444 kts | 5° |
| 2026-05-07 19:26 | 49.69299 | 9.35582 | 32016 ft | 439 kts | 5° |
| 2026-05-07 19:26 | 49.75347 | 9.36606 | 32004 ft | 440 kts | 11° |
| 2026-05-07 19:27 | 49.81281 | 9.38837 | 32016 ft | 439 kts | 14° |
| 2026-05-07 19:27 | 49.87237 | 9.41130 | 32011 ft | 441 kts | 13° |
| 2026-05-07 19:28 | 49.93185 | 9.43420 | 32010 ft | 440 kts | 14° |
| 2026-05-07 19:28 | 49.99149 | 9.45725 | 32009 ft | 440 kts | 13° |
| 2026-05-07 19:29 | 50.05044 | 9.48083 | 32010 ft | 439 kts | 18° |
| 2026-05-07 19:29 | 50.07875 | 9.50044 | 32006 ft | 440 kts | 31° |
| 2026-05-07 19:29 | 50.10405 | 9.52717 | 32017 ft | 440 kts | 36° |
| 2026-05-07 19:30 | 50.15354 | 9.58355 | 32021 ft | 440 kts | 36° |
| 2026-05-07 19:30 | 50.20286 | 9.63929 | 32004 ft | 440 kts | 36° |
| 2026-05-07 19:31 | 50.24910 | 9.70159 | 32367 ft | 441 kts | 49° |
| 2026-05-07 19:31 | 50.26903 | 9.73828 | 32831 ft | 444 kts | 50° |
| 2026-05-07 19:31 | 50.28908 | 9.77535 | 32996 ft | 447 kts | 49° |
| 2026-05-07 19:32 | 50.32953 | 9.84916 | 33017 ft | 446 kts | 49° |
| 2026-05-07 19:32 | 50.37018 | 9.92295 | 33004 ft | 447 kts | 49° |
| 2026-05-07 19:33 | 50.41082 | 9.99685 | 33001 ft | 448 kts | 49° |
| 2026-05-07 19:33 | 50.45137 | 10.07085 | 33001 ft | 448 kts | 49° |
| 2026-05-07 19:34 | 50.49180 | 10.14470 | 33002 ft | 447 kts | 49° |
| 2026-05-07 19:34 | 50.53227 | 10.21891 | 33001 ft | 447 kts | 49° |
| 2026-05-07 19:35 | 50.57267 | 10.29323 | 33062 ft | 447 kts | 49° |
| 2026-05-07 19:35 | 50.59288 | 10.33050 | 33541 ft | 447 kts | 49° |
| 2026-05-07 19:35 | 50.61310 | 10.36784 | 34004 ft | 448 kts | 49° |
| 2026-05-07 19:36 | 50.63328 | 10.40519 | 34485 ft | 448 kts | 49° |
| 2026-05-07 19:36 | 50.65343 | 10.44255 | 34957 ft | 448 kts | 49° |
| 2026-05-07 19:36 | 50.67347 | 10.48003 | 35436 ft | 447 kts | 51° |
| 2026-05-07 19:36 | 50.69203 | 10.51926 | 35858 ft | 445 kts | 54° |
| 2026-05-07 19:37 | 50.71010 | 10.55892 | 36006 ft | 444 kts | 54° |
| 2026-05-07 19:37 | 50.72808 | 10.59842 | 36020 ft | 443 kts | 54° |
| 2026-05-07 19:37 | 50.76424 | 10.67737 | 36006 ft | 443 kts | 54° |
| 2026-05-07 19:38 | 50.80040 | 10.75627 | 36001 ft | 442 kts | 54° |
| 2026-05-07 19:38 | 50.83620 | 10.83452 | 35997 ft | 442 kts | 54° |
| 2026-05-07 19:39 | 50.87219 | 10.91350 | 36000 ft | 441 kts | 54° |
| 2026-05-07 19:39 | 50.90803 | 10.99235 | 36001 ft | 441 kts | 54° |
| 2026-05-07 19:40 | 50.94394 | 11.07149 | 36001 ft | 441 kts | 54° |
| 2026-05-07 19:40 | 50.97940 | 11.14995 | 36002 ft | 441 kts | 54° |
| 2026-05-07 19:41 | 51.01509 | 11.22926 | 36005 ft | 441 kts | 54° |
| 2026-05-07 19:41 | 51.05068 | 11.30857 | 35894 ft | 437 kts | 54° |
| 2026-05-07 19:42 | 51.06832 | 11.34793 | 35549 ft | 438 kts | 54° |
| 2026-05-07 19:42 | 51.08604 | 11.38754 | 35286 ft | 440 kts | 54° |
| 2026-05-07 19:42 | 51.10384 | 11.42732 | 35016 ft | 441 kts | 54° |
| 2026-05-07 19:42 | 51.12160 | 11.46708 | 34765 ft | 441 kts | 54° |
| 2026-05-07 19:43 | 51.13942 | 11.50708 | 34517 ft | 442 kts | 54° |
| 2026-05-07 19:43 | 51.15723 | 11.54711 | 34271 ft | 443 kts | 54° |
| 2026-05-07 19:43 | 51.17505 | 11.58724 | 34018 ft | 443 kts | 54° |
| 2026-05-07 19:43 | 51.19263 | 11.62687 | 33724 ft | 443 kts | 54° |
| 2026-05-07 19:44 | 51.21039 | 11.66699 | 33121 ft | 443 kts | 54° |
| 2026-05-07 19:44 | 51.22816 | 11.70721 | 32419 ft | 443 kts | 54° |
| 2026-05-07 19:44 | 51.24592 | 11.74748 | 31687 ft | 444 kts | 54° |
| 2026-05-07 19:44 | 51.26375 | 11.78800 | 30951 ft | 446 kts | 54° |
| 2026-05-07 19:45 | 51.28152 | 11.82844 | 30224 ft | 444 kts | 54° |
| 2026-05-07 19:45 | 51.29916 | 11.86863 | 29494 ft | 439 kts | 55° |
| 2026-05-07 19:45 | 51.31663 | 11.90848 | 28742 ft | 434 kts | 54° |
| 2026-05-07 19:45 | 51.33385 | 11.94778 | 27984 ft | 428 kts | 54° |
| 2026-05-07 19:46 | 51.35086 | 11.98658 | 27250 ft | 423 kts | 55° |
| 2026-05-07 19:46 | 51.36768 | 12.02499 | 26533 ft | 419 kts | 55° |
| 2026-05-07 19:46 | 51.38428 | 12.06301 | 25810 ft | 414 kts | 55° |
| 2026-05-07 19:46 | 51.40066 | 12.10057 | 25077 ft | 409 kts | 55° |
| 2026-05-07 19:47 | 51.41687 | 12.13787 | 24322 ft | 405 kts | 55° |
| 2026-05-07 19:47 | 51.43265 | 12.17420 | 23629 ft | 400 kts | 55° |
| 2026-05-07 19:47 | 51.44846 | 12.21067 | 22900 ft | 396 kts | 55° |
| 2026-05-07 19:47 | 51.46413 | 12.24686 | 22176 ft | 392 kts | 55° |
| 2026-05-07 19:48 | 51.47959 | 12.28264 | 21518 ft | 388 kts | 55° |
| 2026-05-07 19:48 | 51.49493 | 12.31816 | 21147 ft | 386 kts | 55° |
| 2026-05-07 19:48 | 51.51015 | 12.35350 | 21032 ft | 385 kts | 55° |
| 2026-05-07 19:48 | 51.52541 | 12.38897 | 21002 ft | 385 kts | 55° |
| 2026-05-07 19:49 | 51.54067 | 12.42444 | 20998 ft | 385 kts | 55° |
| 2026-05-07 19:49 | 51.55593 | 12.45997 | 21001 ft | 385 kts | 55° |
| 2026-05-07 19:49 | 51.57112 | 12.49546 | 21004 ft | 385 kts | 55° |
| 2026-05-07 19:49 | 51.58636 | 12.53100 | 21006 ft | 385 kts | 55° |
| 2026-05-07 19:50 | 51.60136 | 12.56604 | 21004 ft | 385 kts | 55° |
| 2026-05-07 19:50 | 51.61653 | 12.60164 | 21003 ft | 385 kts | 55° |
| 2026-05-07 19:50 | 51.63172 | 12.63723 | 21002 ft | 385 kts | 55° |
| 2026-05-07 19:50 | 51.64686 | 12.67278 | 21001 ft | 385 kts | 55° |
| 2026-05-07 19:51 | 51.65690 | 12.69635 | 21001 ft | 385 kts | 55° |
| 2026-05-07 19:51 | 51.67209 | 12.73214 | 21002 ft | 385 kts | 55° |
| 2026-05-07 19:51 | 51.68725 | 12.76785 | 21002 ft | 385 kts | 55° |
| 2026-05-07 19:51 | 51.70232 | 12.80344 | 20903 ft | 385 kts | 55° |
| 2026-05-07 19:52 | 51.71740 | 12.83908 | 20695 ft | 383 kts | 56° |
| 2026-05-07 19:52 | 51.73241 | 12.87457 | 20459 ft | 382 kts | 56° |
| 2026-05-07 19:52 | 51.74733 | 12.90992 | 20211 ft | 380 kts | 56° |
| 2026-05-07 19:52 | 51.76218 | 12.94517 | 19952 ft | 379 kts | 56° |
| 2026-05-07 19:53 | 51.77674 | 12.97982 | 19484 ft | 374 kts | 56° |
| 2026-05-07 19:53 | 51.79129 | 13.01446 | 18902 ft | 372 kts | 56° |
| 2026-05-07 19:53 | 51.80576 | 13.04896 | 18316 ft | 371 kts | 56° |
| 2026-05-07 19:53 | 51.82023 | 13.08345 | 17747 ft | 371 kts | 56° |
| 2026-05-07 19:54 | 51.83474 | 13.11810 | 17164 ft | 371 kts | 56° |
| 2026-05-07 19:54 | 51.84922 | 13.15275 | 16563 ft | 371 kts | 56° |
| 2026-05-07 19:54 | 51.86368 | 13.18739 | 15991 ft | 371 kts | 56° |
| 2026-05-07 19:54 | 51.87806 | 13.22189 | 15430 ft | 369 kts | 56° |
| 2026-05-07 19:55 | 51.89245 | 13.25650 | 14855 ft | 369 kts | 56° |
| 2026-05-07 19:55 | 51.90671 | 13.29081 | 14278 ft | 364 kts | 56° |
| 2026-05-07 19:55 | 51.92072 | 13.32453 | 13554 ft | 356 kts | 56° |
| 2026-05-07 19:55 | 51.93438 | 13.35750 | 12817 ft | 348 kts | 56° |
| 2026-05-07 19:56 | 51.94762 | 13.38949 | 12080 ft | 342 kts | 56° |
| 2026-05-07 19:56 | 51.96268 | 13.41863 | 11324 ft | 335 kts | 39° |
| 2026-05-07 19:56 | 51.98287 | 13.43623 | 10562 ft | 328 kts | 14° |
| 2026-05-07 19:56 | 52.00523 | 13.43839 | 9815 ft | 320 kts | 351° |
| 2026-05-07 19:57 | 52.02689 | 13.43192 | 9083 ft | 315 kts | 346° |
| 2026-05-07 19:57 | 52.04830 | 13.42432 | 8353 ft | 315 kts | 348° |
| 2026-05-07 19:57 | 52.06990 | 13.41782 | 7608 ft | 315 kts | 349° |
| 2026-05-07 19:57 | 52.09018 | 13.40521 | 6935 ft | 312 kts | 325° |
| 2026-05-07 19:58 | 52.10517 | 13.38081 | 6353 ft | 298 kts | 307° |
| 2026-05-07 19:58 | 52.11711 | 13.35464 | 5980 ft | 276 kts | 306° |
| 2026-05-07 19:58 | 52.12791 | 13.33074 | 5872 ft | 248 kts | 306° |
| 2026-05-07 19:58 | 52.13788 | 13.30889 | 5879 ft | 238 kts | 306° |
| 2026-05-07 19:59 | 52.14779 | 13.28728 | 5880 ft | 238 kts | 306° |
| 2026-05-07 19:59 | 52.15770 | 13.26569 | 5881 ft | 238 kts | 306° |
| 2026-05-07 19:59 | 52.16761 | 13.24415 | 5883 ft | 238 kts | 306° |
| 2026-05-07 19:59 | 52.17752 | 13.22258 | 5880 ft | 238 kts | 306° |
| 2026-05-07 20:00 | 52.18526 | 13.19891 | 5879 ft | 238 kts | 284° |
| 2026-05-07 20:00 | 52.18555 | 13.17227 | 5886 ft | 237 kts | 256° |
| 2026-05-07 20:00 | 52.18003 | 13.14741 | 5884 ft | 238 kts | 246° |
| 2026-05-07 20:00 | 52.17359 | 13.12253 | 5885 ft | 238 kts | 247° |
| 2026-05-07 20:01 | 52.16725 | 13.09759 | 5885 ft | 238 kts | 248° |
| 2026-05-07 20:01 | 52.16103 | 13.07262 | 5887 ft | 238 kts | 248° |
| 2026-05-07 20:01 | 52.15488 | 13.04766 | 5885 ft | 238 kts | 248° |
| 2026-05-07 20:01 | 52.14872 | 13.02257 | 5884 ft | 238 kts | 248° |
| 2026-05-07 20:02 | 52.14270 | 12.99794 | 5886 ft | 238 kts | 248° |
| 2026-05-07 20:02 | 52.13651 | 12.97271 | 5884 ft | 238 kts | 248° |
| 2026-05-07 20:02 | 52.13044 | 12.94781 | 5882 ft | 238 kts | 249° |
| 2026-05-07 20:02 | 52.12440 | 12.92287 | 5883 ft | 238 kts | 249° |
| 2026-05-07 20:03 | 52.12012 | 12.89691 | 5836 ft | 236 kts | 268° |
| 2026-05-07 20:03 | 52.12319 | 12.87156 | 5734 ft | 227 kts | 295° |
| 2026-05-07 20:03 | 52.13265 | 12.85129 | 5566 ft | 226 kts | 321° |
| 2026-05-07 20:03 | 52.14646 | 12.83959 | 5343 ft | 226 kts | 346° |
| 2026-05-07 20:04 | 52.16206 | 12.83852 | 5099 ft | 226 kts | 11° |
| 2026-05-07 20:04 | 52.17690 | 12.84689 | 4855 ft | 226 kts | 24° |
| 2026-05-07 20:04 | 52.19099 | 12.85724 | 4604 ft | 225 kts | 24° |
| 2026-05-07 20:04 | 52.20531 | 12.86752 | 4351 ft | 224 kts | 24° |
| 2026-05-07 20:05 | 52.21890 | 12.87985 | 4097 ft | 224 kts | 40° |
| 2026-05-07 20:05 | 52.22787 | 12.90025 | 3888 ft | 224 kts | 67° |
| 2026-05-07 20:05 | 52.23347 | 12.92395 | 3842 ft | 224 kts | 70° |
| 2026-05-07 20:05 | 52.23897 | 12.94780 | 3855 ft | 224 kts | 69° |
| 2026-05-07 20:06 | 52.24457 | 12.97157 | 3871 ft | 224 kts | 69° |
| 2026-05-07 20:06 | 52.25024 | 12.99525 | 3877 ft | 224 kts | 68° |
| 2026-05-07 20:06 | 52.25620 | 13.01879 | 3882 ft | 224 kts | 65° |
| 2026-05-07 20:06 | 52.26226 | 13.04224 | 3882 ft | 224 kts | 69° |
| 2026-05-07 20:07 | 52.26794 | 13.06588 | 3882 ft | 224 kts | 68° |
| 2026-05-07 20:07 | 52.27354 | 13.08931 | 3882 ft | 224 kts | 69° |
| 2026-05-07 20:07 | 52.27920 | 13.11304 | 3882 ft | 224 kts | 69° |
| 2026-05-07 20:07 | 52.28484 | 13.13672 | 3882 ft | 224 kts | 69° |
| 2026-05-07 20:08 | 52.29040 | 13.16005 | 3877 ft | 214 kts | 69° |
| 2026-05-07 20:08 | 52.29579 | 13.18267 | 3916 ft | 214 kts | 69° |
| 2026-05-07 20:08 | 52.30108 | 13.20492 | 3729 ft | 202 kts | 69° |
| 2026-05-07 20:08 | 52.30605 | 13.22580 | 3465 ft | 193 kts | 69° |
| 2026-05-07 20:09 | 52.31084 | 13.24593 | 3203 ft | 187 kts | 69° |
| 2026-05-07 20:09 | 52.31547 | 13.26540 | 2950 ft | 180 kts | 69° |
| 2026-05-07 20:09 | 52.31984 | 13.28377 | 2738 ft | 165 kts | 68° |
| 2026-05-07 20:10 | 52.32697 | 13.31374 | 2337 ft | 132 kts | 68° |
| 2026-05-07 20:10 | 52.33024 | 13.32752 | 2157 ft | 128 kts | 68° |
| 2026-05-07 20:10 | 52.33344 | 13.34098 | 1996 ft | 127 kts | 68° |
| 2026-05-07 20:10 | 52.33662 | 13.35437 | 1831 ft | 126 kts | 68° |
| 2026-05-07 20:11 | 52.33981 | 13.36776 | 1665 ft | 126 kts | 68° |
| 2026-05-07 20:11 | 52.34298 | 13.38115 | 1497 ft | 126 kts | 68° |
| 2026-05-07 20:11 | 52.34615 | 13.39447 | 1334 ft | 126 kts | 68° |
| 2026-05-07 20:11 | 52.34932 | 13.40782 | 1161 ft | 126 kts | 68° |
| 2026-05-07 20:12 | 52.35248 | 13.42112 | 999 ft | 125 kts | 68° |
| 2026-05-07 20:12 | 52.35562 | 13.43437 | 828 ft | 125 kts | 68° |
| 2026-05-07 20:12 | 52.35876 | 13.44756 | 664 ft | 124 kts | 68° |
| 2026-05-07 20:12 | 52.36188 | 13.46069 | 500 ft | 123 kts | 69° |
| 2026-05-07 20:13 | 52.36499 | 13.47382 | 334 ft | 123 kts | 69° |
| 2026-05-07 20:13 | 52.36809 | 13.48687 | 193 ft | 122 kts | 69° |
| 2026-05-07 20:13 | 52.37086 | 13.49853 | 161 ft | 73 kts | 69° |
| 2026-05-07 20:13 | 52.37246 | 13.50519 | 161 ft | 55 kts | 67° |
| 2026-05-07 20:14 | 52.37364 | 13.51012 | 162 ft | 38 kts | 68° |
| 2026-05-07 20:14 | 52.37458 | 13.51424 | 161 ft | 39 kts | 83° |
| 2026-05-07 20:14 | 52.37445 | 13.51689 | 162 ft | 23 kts | 100° |
| 2026-05-07 20:14 | 52.37433 | 13.51808 | 163 ft | 4 kts | 98° |
| 2026-05-07 20:15 | 52.37427 | 13.51878 | 163 ft | 6 kts | 98° |
| 2026-05-07 20:15 | 52.37425 | 13.51894 | 163 ft | 3 kts | 98° |
| 2026-05-07 20:15 | 52.37419 | 13.51955 | 164 ft | 8 kts | 100° |
| 2026-05-07 20:15 | 52.37398 | 13.52013 | 164 ft | 8 kts | 155° |
| 2026-05-07 20:16 | 52.37333 | 13.52035 | 164 ft | 12 kts | 172° |
| 2026-05-07 20:16 | 52.37258 | 13.51970 | 164 ft | 15 kts | 244° |
| 2026-05-07 20:16 | 52.37232 | 13.51857 | 164 ft | 9 kts | 251° |
| 2026-05-07 20:16 | 52.37208 | 13.51748 | 164 ft | 9 kts | 248° |
| 2026-05-07 20:17 | 52.37182 | 13.51648 | 164 ft | 0 kts | 247° |
| 2026-05-07 20:17 | 52.37178 | 13.51633 | 164 ft | 3 kts | 247° |
| 2026-05-07 20:17 | 52.37166 | 13.51583 | 164 ft | 0 kts | 247° |
| 2026-05-07 20:17 | 52.37161 | 13.51564 | 164 ft | 4 kts | 247° |
| 2026-05-07 20:18 | 52.37152 | 13.51530 | 164 ft | 1 kts | 247° |
| 2026-05-07 20:18 | 52.37146 | 13.51506 | 164 ft | 0 kts | 248° |
| 2026-05-07 20:18 | 52.37145 | 13.51503 | 164 ft | 2 kts | 248° |
| 2026-05-07 20:18 | 52.37136 | 13.51467 | 164 ft | 5 kts | 248° |
| 2026-05-07 20:19 | 52.37120 | 13.51388 | 164 ft | 9 kts | 251° |
| 2026-05-07 20:19 | 52.37093 | 13.51270 | 164 ft | 13 kts | 249° |
| 2026-05-07 20:19 | 52.37056 | 13.51114 | 164 ft | 16 kts | 249° |
| 2026-05-07 20:19 | 52.37016 | 13.50945 | 164 ft | 15 kts | 249° |
| 2026-05-07 20:20 | 52.36975 | 13.50769 | 164 ft | 18 kts | 249° |
| 2026-05-07 20:20 | 52.36928 | 13.50573 | 164 ft | 18 kts | 249° |
| 2026-05-07 20:20 | 52.36902 | 13.50466 | 164 ft | 6 kts | 249° |
| 2026-05-07 20:20 | 52.36888 | 13.50408 | 164 ft | 9 kts | 249° |
| 2026-05-07 20:21 | 52.36864 | 13.50303 | 164 ft | 13 kts | 249° |
| 2026-05-07 20:21 | 52.36805 | 13.50193 | 164 ft | 12 kts | 194° |
| 2026-05-07 20:21 | 52.36710 | 13.50167 | 164 ft | 16 kts | 173° |
| 2026-05-07 20:21 | 52.36599 | 13.50221 | 164 ft | 14 kts | 158° |
| 2026-05-07 20:22 | 52.36500 | 13.50285 | 164 ft | 17 kts | 159° |
| 2026-05-07 20:22 | 52.36390 | 13.50355 | 164 ft | 15 kts | 158° |
| 2026-05-07 20:22 | 52.36313 | 13.50406 | 164 ft | 1 kts | 158° |
| 2026-05-07 20:22 | 52.36306 | 13.50410 | 164 ft | 3 kts | 158° |
| 2026-05-07 20:23 | 52.36265 | 13.50437 | 164 ft | 10 kts | 159° |
| 2026-05-07 20:23 | 52.36181 | 13.50487 | 164 ft | 15 kts | 160° |
| 2026-05-07 20:23 | 52.36073 | 13.50555 | 164 ft | 18 kts | 158° |
| 2026-05-07 20:23 | 52.35974 | 13.50618 | 164 ft | 16 kts | 159° |
| 2026-05-07 20:24 | 52.35904 | 13.50757 | 164 ft | 20 kts | 70° |
| 2026-05-07 20:24 | 52.35943 | 13.50927 | 164 ft | 17 kts | 69° |
| 2026-05-07 20:24 | 52.35983 | 13.51094 | 164 ft | 9 kts | 68° |
| 2026-05-07 20:24 | 52.36012 | 13.51212 | 164 ft | 12 kts | 68° |
| 2026-05-07 20:25 | 52.36043 | 13.51344 | 164 ft | 12 kts | 70° |
| 2026-05-07 20:25 | 52.36068 | 13.51451 | 164 ft | 9 kts | 68° |
| 2026-05-07 20:25 | 52.36095 | 13.51562 | 164 ft | 12 kts | 68° |
| 2026-05-07 20:25 | 52.36124 | 13.51597 | 164 ft | 7 kts | 10° |
| 2026-05-07 20:26 | 52.36179 | 13.51570 | 164 ft | 3 kts | 310° |
| 2026-05-07 20:26 | 52.36191 | 13.51549 | 164 ft | 0 kts | 315° |
| 2026-05-07 20:26 | 52.36191 | 13.51548 | 164 ft | 0 kts | 315° |